• Join FlightAware (Why Join?)
  • Login
  • US Flag 
08:10AM EDT


 

Airport Tracker/Info


-or-


 

Live Flight TrackerFlight Track Log ✈ AWE1940 ✈ 20-Jun-2013 ✈ KIAH - KCLT

Flight Track Log - Related Links

Times and Time Zones

All times are in EDT time to prevent confusion due to time zone crossing. See the AWE1940 flight status page for this flight to view local times or setup timezone preferences in your user account.

Time Position Orientation Groundspeed Altitude Reporting Facility
EDT Latitude Longitude Course Direction KTS MPH feet Rate Location/Type
06:36PM 29.9572 -95.3392 41° Northeast 176 203 900  Level Houston Center
06:38PM 29.9633 -95.4083 276° West 280 322 3,400 1,200 Climbing Houston Center
06:39PM 30.2633 -95.1023 30° Northeast  Level FlightAware Approximate
06:39PM 30.0381 -95.3753 21° North 286 329 4,000  Level Houston Center
06:40PM 30.3607 -95.0314 35° Northeast  Level FlightAware Approximate
06:40PM 30.0978 -95.3175 40° Northeast 278 320 4,000  Level Houston Center
06:41PM 30.4512 -94.9492 30° Northeast  Level FlightAware Approximate
06:41PM 30.1656 -95.2564 38° Northeast 278 320 4,400  Level Houston Center
06:42PM 30.5509 -94.8825 41° Northeast  Level FlightAware Approximate
06:42PM 30.2272 -95.1986 39° Northeast 282 325 7,200  Level Houston Center
06:43PM 30.2903 -95.1392 39° Northeast 289 333 10,000 1,980 Climbing Houston Center
06:44PM 30.3619 -95.0733 38° Northeast 318 366 11,300 1,980 Climbing Houston Center
06:45PM 30.4511 -94.9872 40° Northeast 354 407 14,200 2,400 Climbing Houston Center
06:46PM 30.5319 -94.9108 39° Northeast 368 423 16,300 2,160 Climbing Houston Center
06:47PM 30.6208 -94.8389 35° Northeast 383 441 18,700 1,920 Climbing Houston Center
06:48PM 30.7097 -94.7703 34° Northeast 384 442 20,300 1,500 Climbing Houston Center
06:49PM 30.8050 -94.6975 33° Northeast 400 460 21,900 1,500 Climbing Houston Center
06:50PM 30.9011 -94.6228 34° Northeast 414 476 23,500 1,500 Climbing Houston Center
06:51PM 31.0197 -94.5308 34° Northeast 430 495 25,000 720 Climbing Houston Center
06:52PM 31.1175 -94.4533 34° Northeast 429 494 25,000  Level Houston Center
06:53PM 31.2175 -94.3767 33° Northeast 434 499 25,000  Level Houston Center
06:54PM 31.2931 -94.2681 51° Northeast 436 502 25,000  Level Houston Center
06:55PM 31.3617 -94.1533 55° Northeast 436 502 25,000 60 Level Houston Center
06:56PM 31.4439 -94.0139 55° Northeast 435 501 25,200 720 Climbing Houston Center
06:58PM 31.5117 -93.8244 67° East 452 520 26,900 1,380 Climbing Houston Center
06:59PM 31.5592 -93.6864 68° East 457 526 28,700 1,740 Climbing Houston Center
07:00PM 31.6086 -93.5447 68° East 446 513 30,500 1,320 Climbing Houston Center
07:01PM 31.6550 -93.4114 68° East 439 505 31,500 960 Climbing Houston Center
07:02PM 31.7039 -93.2672 68° East 441 507 32,500 720 Climbing Houston Center
07:03PM 31.7503 -93.1303 68° East 449 517 33,000 240 Climbing Houston Center
07:04PM 31.7978 -92.9967 67° East 445 512 33,000  Level Houston Center
07:05PM 31.8433 -92.8594 69° East 448 516 33,000  Level Houston Center
07:06PM 31.8897 -92.7231 68° East 450 518 33,000  Level Houston Center
07:07PM 31.9444 -92.5583 69° East 450 518 33,000  Level Houston Center
07:08PM 31.9908 -92.4217 68° East 450 518 33,000  Level Houston Center
07:09PM 32.0372 -92.2822 69° East 456 525 33,000  Level Houston Center
07:10PM 32.0814 -92.1422 70° East 456 525 33,000  Level Houston Center
07:11PM 32.1258 -92.0083 69° East 459 528 33,000  Level Houston Center
07:12PM 32.1792 -91.8397 69° East 458 527 33,000  Level Houston Center
07:13PM 32.2253 -91.7006 69° East 455 524 33,000  Level Houston Center
07:14PM 32.2706 -91.5617 69° East 454 522 33,000  Level Houston Center
07:15PM 32.3153 -91.4222 69° East 454 522 33,000  Level Houston Center
07:16PM 32.3600 -91.2842 69° East 451 519 33,000  Level Houston Center
07:17PM 32.3917 -91.1792 70° East 445 512 33,000  Level Memphis Center
07:18PM 32.4364 -91.0367 70° East 450 518 33,000  Level Memphis Center
07:19PM 32.4786 -90.8992 70° East 450 518 33,000  Level Memphis Center
07:20PM 32.5231 -90.7589 69° East 450 518 33,000  Level Memphis Center
07:21PM 32.5694 -90.6186 69° East 450 518 33,000  Level Memphis Center
07:22PM 32.6133 -90.4806 69° East 450 518 33,000  Level Memphis Center
07:23PM 32.6572 -90.3350 70° East 450 518 33,000  Level Memphis Center
07:24PM 32.7031 -90.1944 69° East 450 518 33,000  Level Memphis Center
07:25PM 32.7508 -90.0361 70° East 455 524 33,000  Level Memphis Center
07:26PM 32.7922 -89.8950 71° East 455 524 33,000  Level Memphis Center
07:27PM 32.8353 -89.7467 71° East 460 529 33,000  Level Memphis Center
07:28PM 32.8847 -89.6028 68° East 465 535 33,000  Level Memphis Center
07:29PM 32.9233 -89.4711 71° East 465 535 33,000  Level Memphis Center
07:30PM 32.9683 -89.3322 69° East 465 535 33,000  Level Memphis Center
07:31PM 33.0128 -89.1856 70° East 465 535 33,000  Level Memphis Center
07:32PM 33.0553 -89.0411 71° East 465 535 33,000  Level Memphis Center
07:33PM 33.0994 -88.8967 70° East 465 535 33,000  Level Memphis Center
07:34PM 33.1417 -88.7519 71° East 465 535 33,000  Level Memphis Center
07:37PM 33.2378 -88.3800 73° East 470 541 33,000  Level Atlanta Center
07:38PM 33.2536 -88.2244 83° East 470 541 33,000  Level Atlanta Center
07:39PM 33.2733 -88.0689 81° East 470 541 33,000  Level Atlanta Center
07:40PM 33.2889 -87.9131 83° East 470 541 33,000  Level Atlanta Center
07:41PM 33.3061 -87.7547 83° East 470 541 33,000  Level Atlanta Center
07:42PM 33.3233 -87.6014 82° East 470 541 33,000  Level Atlanta Center
07:43PM 33.3403 -87.4403 83° East 470 541 33,000  Level Atlanta Center
07:44PM 33.3569 -87.2844 83° East 475 547 33,000  Level Atlanta Center
07:45PM 33.3756 -87.1283 82° East 475 547 33,000  Level Atlanta Center
07:46PM 33.3900 -86.9697 84° East 475 547 33,000  Level Atlanta Center
07:47PM 33.4061 -86.8108 83° East 475 547 33,000  Level Atlanta Center
07:48PM 33.4242 -86.6547 82° East 481 554 33,000  Level Atlanta Center
07:49PM 33.4378 -86.4983 84° East 481 554 33,000  Level Atlanta Center
07:50PM 33.4553 -86.3594 81° East 481 554 33,000  Level Atlanta Center
07:51PM 33.4706 -86.2003 83° East 476 548 33,000  Level Atlanta Center
07:52PM 33.4858 -86.0439 83° East 471 542 33,000  Level Atlanta Center
07:53PM 33.5008 -85.8847 84° East 478 550 33,000  Level Atlanta Center
07:54PM 33.5178 -85.7181 83° East 472 543 33,000  Level Atlanta Center
07:55PM 33.5300 -85.5764 84° East 472 543 33,000  Level Atlanta Center
07:56PM 33.5444 -85.4172 84° East 472 543 33,000  Level Atlanta Center
07:57PM 33.5586 -85.2578 84° East 472 543 33,000  Level Atlanta Center
07:58PM 33.5706 -85.1008 85° East 472 543 33,000  Level Atlanta Center
07:59PM 33.5989 -84.9467 78° East 477 549 33,000  Level Atlanta Center
08:00PM 33.6397 -84.7800 74° East 477 549 33,000  Level Atlanta Center
08:01PM 33.6781 -84.6231 74° East 472 543 33,000  Level Atlanta Center
08:02PM 33.7058 -84.4883 76° East 467 537 33,000 -300 Level Atlanta Center
08:03PM 33.7481 -84.3386 71° East 467 537 32,400 -840 Descending Atlanta Center
08:04PM 33.7836 -84.1764 75° East 478 550 31,400 -720 Descending Atlanta Center
08:05PM 33.8214 -84.0239 73° East 485 558 31,000 -240 Descending Atlanta Center
08:06PM 33.8589 -83.8736 73° East 470 541 31,000  Level Atlanta Center
08:07PM 33.8961 -83.7183 74° East 470 541 31,000  Level Atlanta Center
08:08PM 33.9289 -83.5656 75° East 470 541 31,000  Level Atlanta Center
08:09PM 33.9700 -83.3950 74° East 475 547 31,000  Level Atlanta Center
08:10PM 34.0044 -83.2369 75° East 475 547 31,000  Level Atlanta Center
08:11PM 34.0619 -83.0933 64° Northeast 469 540 31,000 -240 Level Atlanta Center
08:12PM 34.1275 -82.9497 61° Northeast 469 540 30,600 -720 Descending Atlanta Center
08:13PM 34.1908 -82.8108 61° Northeast 474 545 29,600 -1,020 Descending Atlanta Center
08:14PM 34.2478 -82.6642 65° Northeast 474 545 28,600 -900 Descending Atlanta Center
08:15PM 34.3069 -82.5425 59° Northeast 469 540 27,800 -900 Descending Atlanta Center
08:16PM 34.3697 -82.3981 62° Northeast 474 545 26,800 -1,440 Descending Atlanta Center
08:17PM 34.4264 -82.2608 63° Northeast 474 545 25,000 -2,100 Descending Atlanta Center
08:18PM 34.4869 -82.1233 62° Northeast 463 533 22,600 -2,400 Descending Atlanta Center
08:19PM 34.5411 -81.9961 63° Northeast 439 505 20,300 -2,520 Descending Atlanta Center
08:20PM 34.5933 -81.8739 63° Northeast 405 466 17,900 -2,460 Descending Atlanta Center
08:20PM 34.6253 -81.7922 65° Northeast 391 450 16,400 -2,160 Descending Atlanta Center
08:21PM 34.6753 -81.6797 62° Northeast 372 428 14,200 -2,160 Descending Atlanta Center
08:22PM 34.7253 -81.5647 62° Northeast 353 406 12,100 -1,140 Descending Atlanta Center
08:23PM 34.7739 -81.4922 51° Northeast 337 388 12,000 -60 Descending Atlanta Center
08:24PM 34.8428 -81.4042 46° Northeast 328 377 12,000  Level Atlanta Center
08:25PM 34.9058 -81.3236 46° Northeast 329 379 12,000 -840 Level Atlanta Center
08:26PM 34.9686 -81.2431 46° Northeast 331 381 10,400 -1,260 Descending Atlanta Center
08:27PM 35.0233 -81.1753 45° Northeast 297 342 9,600 -660 Descending Atlanta Center
08:28PM 35.0928 -81.1094 38° Northeast 270 311 9,100 -300 Descending Atlanta Center
08:29PM 35.1506 -81.0769 25° Northeast 276 318 9,100 -780 Level Atlanta Center
08:30PM 35.2244 -81.0286 28° Northeast 275 316 7,600 -1,620 Descending Atlanta Center
08:31PM 35.2814 -80.9706 40° Northeast 264 304 5,900 -1,320 Descending Atlanta Center
08:32PM 35.3383 -80.9097 41° Northeast 261 300 5,000 -780 Descending Atlanta Center
08:33PM 35.3889 -80.8492 44° Northeast 229 264 4,300 -540 Descending Atlanta Center
08:34PM 35.3625 -80.7994 123° Southeast 194 223 4,000 -360 Descending Atlanta Center
08:35PM 35.3169 -80.8089 190° South 182 209 3,700 -300 Descending Atlanta Center